createdAt,value
2018-11-28T00:00:44.280Z,22.60
2018-11-28T00:03:11.671Z,22.90
2018-11-28T00:05:39.099Z,21.87
2018-11-28T00:08:06.503Z,22.50
2018-11-28T00:10:33.934Z,23.30
2018-11-28T00:13:01.344Z,23.97
2018-11-28T00:15:28.813Z,23.83
2018-11-28T00:17:56.206Z,25.03
2018-11-28T00:20:23.660Z,23.97
2018-11-28T00:22:51.044Z,24.60
2018-11-28T00:25:18.851Z,22.50
2018-11-28T00:27:46.230Z,23.07
2018-11-28T00:30:17.813Z,21.00
2018-11-28T00:32:45.255Z,22.87
2018-11-28T00:35:13.687Z,22.57
2018-11-28T00:37:41.127Z,22.93
2018-11-28T00:40:10.785Z,22.17
2018-11-28T00:42:38.343Z,22.60
2018-11-28T00:45:08.482Z,23.00
2018-11-28T00:47:35.901Z,22.47
2018-11-28T00:50:03.684Z,22.40
2018-11-28T00:52:31.111Z,22.60
2018-11-28T00:54:58.523Z,22.33
2018-11-28T00:57:25.951Z,22.43
2018-11-28T00:59:53.347Z,21.70
2018-11-28T01:02:20.790Z,22.13
2018-11-28T01:04:48.203Z,21.47
2018-11-28T01:07:15.634Z,23.43
2018-11-28T01:09:43.032Z,23.07
2018-11-28T01:12:10.473Z,22.23
2018-11-28T01:14:37.872Z,22.47
2018-11-28T01:17:05.803Z,24.63
2018-11-28T01:19:33.203Z,23.00
2018-11-28T01:22:00.651Z,22.13
2018-11-28T01:24:28.054Z,22.57
2018-11-28T01:26:55.463Z,23.77
2018-11-28T01:29:22.883Z,22.80
2018-11-28T01:31:50.296Z,21.53
2018-11-28T01:34:17.690Z,22.47
2018-11-28T01:36:45.143Z,23.20
2018-11-28T01:39:12.535Z,22.97
2018-11-28T01:41:39.953Z,23.00
2018-11-28T01:44:07.357Z,21.60
2018-11-28T01:46:34.779Z,21.90
2018-11-28T01:49:02.199Z,21.77
2018-11-28T01:51:29.623Z,24.03
2018-11-28T01:53:57.027Z,23.40
2018-11-28T01:56:24.458Z,22.87
2018-11-28T01:58:51.851Z,23.57
2018-11-28T02:01:19.266Z,22.33
2018-11-28T02:03:46.679Z,25.10
2018-11-28T02:06:14.221Z,22.27
2018-11-28T02:08:41.615Z,23.20
2018-11-28T02:11:09.040Z,22.43
2018-11-28T02:13:36.435Z,22.97
2018-11-28T02:16:03.871Z,23.23
2018-11-28T02:18:31.286Z,22.93
2018-11-28T02:20:58.675Z,23.60
2018-11-28T02:23:26.109Z,23.67
2018-11-28T02:25:53.515Z,22.63
2018-11-28T02:28:20.964Z,23.30
2018-11-28T02:30:48.403Z,23.07
2018-11-28T02:33:15.791Z,22.70
2018-11-28T02:35:43.210Z,24.13
2018-11-28T02:38:10.603Z,24.00
2018-11-28T02:40:38.025Z,22.90
2018-11-28T02:43:06.053Z,24.20
2018-11-28T02:45:33.480Z,23.37
2018-11-28T02:48:00.868Z,23.63
2018-11-28T02:50:28.290Z,22.33
2018-11-28T02:52:55.693Z,23.30
2018-11-28T02:55:23.114Z,24.27
2018-11-28T02:57:50.517Z,24.47
2018-11-28T03:00:20.028Z,24.23
2018-11-28T03:02:47.462Z,24.50
2018-11-28T03:05:14.941Z,23.90
2018-11-28T03:07:42.437Z,24.57
2018-11-28T03:10:11.492Z,24.57
2018-11-28T03:12:38.888Z,22.70
2018-11-28T03:15:08.684Z,24.07
2018-11-28T03:17:36.191Z,24.40
2018-11-28T03:20:04.491Z,24.03
2018-11-28T03:22:31.919Z,23.67
2018-11-28T03:24:59.312Z,24.20
2018-11-28T03:27:26.740Z,23.40
2018-11-28T03:29:54.150Z,22.97
2018-11-28T03:32:21.576Z,23.57
2018-11-28T03:34:48.981Z,24.43
2018-11-28T03:37:16.409Z,22.57
2018-11-28T03:39:43.811Z,22.67
2018-11-28T03:42:11.243Z,23.40
2018-11-28T03:44:38.656Z,24.57
2018-11-28T03:47:06.175Z,22.20
2018-11-28T03:49:33.589Z,22.30
2018-11-28T03:52:01.042Z,22.47
2018-11-28T03:54:28.453Z,24.20
2018-11-28T03:56:55.896Z,22.93
2018-11-28T03:59:23.294Z,21.63
2018-11-28T04:01:50.723Z,21.23
2018-11-28T04:04:18.124Z,23.93
2018-11-28T04:06:45.547Z,21.80
2018-11-28T04:09:12.948Z,22.90
2018-11-28T04:11:40.403Z,23.47
2018-11-28T04:14:07.801Z,24.73
2018-11-28T04:16:35.248Z,24.50
2018-11-28T04:19:04.642Z,24.57
2018-11-28T04:21:32.247Z,23.53
2018-11-28T04:23:59.885Z,23.07
2018-11-28T04:26:27.313Z,23.33
2018-11-28T04:28:54.716Z,23.73
2018-11-28T04:31:22.152Z,23.47
2018-11-28T04:33:49.583Z,24.50
2018-11-28T04:36:16.983Z,22.60
2018-11-28T04:38:44.425Z,22.77
2018-11-28T04:41:11.823Z,21.57
2018-11-28T04:43:39.239Z,22.37
2018-11-28T04:46:06.677Z,21.30
2018-11-28T04:48:34.081Z,20.23
2018-11-28T04:51:01.528Z,23.50
2018-11-28T04:53:28.918Z,22.40
2018-11-28T04:55:56.336Z,21.73
2018-11-28T04:58:23.755Z,20.67
2018-11-28T05:00:51.175Z,21.67
2018-11-28T05:03:18.567Z,20.07
2018-11-28T05:05:45.989Z,20.60
2018-11-28T05:08:13.382Z,21.10
2018-11-28T05:10:40.820Z,22.30
2018-11-28T05:13:08.212Z,22.07
2018-11-28T05:15:35.639Z,21.83
2018-11-28T05:18:03.067Z,21.73
2018-11-28T05:20:31.727Z,21.73
2018-11-28T05:22:59.160Z,23.20
2018-11-28T05:25:28.135Z,21.70
2018-11-28T05:27:55.612Z,22.67
2018-11-28T05:30:24.961Z,22.23
2018-11-28T05:32:52.391Z,21.90
2018-11-28T05:35:24.199Z,20.73
2018-11-28T05:37:51.595Z,21.63
2018-11-28T05:40:20.215Z,21.83
2018-11-28T05:42:47.971Z,20.73
2018-11-28T05:45:15.611Z,21.80
2018-11-28T05:47:43.050Z,22.17
2018-11-28T05:50:11.596Z,21.03
2018-11-28T05:52:39.086Z,21.00
2018-11-28T05:55:07.959Z,20.87
2018-11-28T05:57:35.661Z,21.70
2018-11-28T06:00:04.923Z,21.53
2018-11-28T06:02:31.627Z,21.00
2018-11-28T06:04:59.027Z,21.83
2018-11-28T06:07:26.447Z,21.23
2018-11-28T06:09:53.838Z,22.50
2018-11-28T06:12:21.267Z,22.27
2018-11-28T06:14:48.674Z,22.50
2018-11-28T06:17:16.123Z,22.60
2018-11-28T06:19:43.524Z,22.17
2018-11-28T06:22:10.961Z,23.33
2018-11-28T06:24:38.363Z,23.33
2018-11-28T06:27:05.815Z,22.43
2018-11-28T06:29:33.217Z,22.53
2018-11-28T06:32:00.636Z,22.10
2018-11-28T06:34:28.038Z,23.63
2018-11-28T06:36:55.471Z,23.57
2018-11-28T06:39:22.879Z,23.43
2018-11-28T06:41:50.351Z,21.60
2018-11-28T06:44:17.783Z,23.60
2018-11-28T06:46:45.233Z,23.33
2018-11-28T06:49:12.631Z,22.47
2018-11-28T06:51:40.205Z,22.03
2018-11-28T06:54:07.598Z,22.47
2018-11-28T06:56:35.023Z,22.60
2018-11-28T06:59:02.422Z,22.87
2018-11-28T07:01:29.840Z,22.30
2018-11-28T07:03:57.243Z,22.63
2018-11-28T07:06:24.668Z,22.67
2018-11-28T07:08:52.211Z,22.70
2018-11-28T07:11:19.652Z,21.67
2018-11-28T07:13:47.055Z,22.47
2018-11-28T07:16:14.451Z,20.87
2018-11-28T07:18:53.487Z,22.33
2018-11-28T07:21:20.930Z,21.27
2018-11-28T07:23:48.356Z,21.17
2018-11-28T07:26:15.764Z,22.63
2018-11-28T07:28:43.215Z,23.13
2018-11-28T07:31:10.635Z,23.17
2018-11-28T07:33:38.049Z,24.10
2018-11-28T07:36:05.515Z,23.87
2018-11-28T07:38:32.923Z,25.10
2018-11-28T07:41:00.328Z,25.73
2018-11-28T07:43:27.748Z,24.97
2018-11-28T07:45:55.142Z,23.97
2018-11-28T07:48:22.559Z,25.00
2018-11-28T07:50:49.961Z,24.87
2018-11-28T07:53:17.461Z,25.53
2018-11-28T07:55:44.859Z,24.87
2018-11-28T07:58:12.283Z,25.50
2018-11-28T08:00:39.690Z,24.93
2018-11-28T08:03:08.192Z,24.43
2018-11-28T08:05:36.664Z,23.87
2018-11-28T08:08:04.871Z,21.43
2018-11-28T08:10:33.008Z,21.37
2018-11-28T08:13:00.435Z,21.23
2018-11-28T08:15:27.838Z,21.03
2018-11-28T08:17:55.268Z,20.87
2018-11-28T08:20:22.775Z,20.20
2018-11-28T08:22:50.211Z,19.83
2018-11-28T08:25:17.692Z,19.97
2018-11-28T08:27:46.235Z,20.63
2018-11-28T08:30:19.853Z,20.00
2018-11-28T08:32:46.840Z,19.50
2018-11-28T08:35:14.316Z,20.73
2018-11-28T08:37:41.779Z,19.23
2018-11-28T08:40:14.507Z,18.60
2018-11-28T08:42:41.975Z,21.33
2018-11-28T08:45:12.170Z,17.73
2018-11-28T08:47:39.669Z,21.67
2018-11-28T08:50:15.939Z,21.67
2018-11-28T08:52:43.427Z,20.87
2018-11-28T08:55:11.902Z,21.67
2018-11-28T08:57:39.383Z,20.53
2018-11-28T09:00:22.721Z,19.70
2018-11-28T09:02:51.303Z,19.47
2018-11-28T09:05:18.727Z,20.17
2018-11-28T09:07:46.211Z,22.03
2018-11-28T09:10:14.491Z,21.80
2018-11-28T09:12:42.056Z,22.53
2018-11-28T09:15:11.659Z,21.03
2018-11-28T09:17:39.318Z,20.73
2018-11-28T09:20:09.799Z,19.87
2018-11-28T09:22:37.363Z,21.17
2018-11-28T09:25:05.903Z,20.70
2018-11-28T09:27:33.321Z,19.47
2018-11-28T09:30:00.754Z,20.50
2018-11-28T09:32:28.165Z,19.80
2018-11-28T09:34:55.594Z,19.93
2018-11-28T09:37:23.003Z,20.00
2018-11-28T09:39:50.563Z,19.40
2018-11-28T09:42:17.983Z,20.00
2018-11-28T09:44:45.412Z,19.93
2018-11-28T09:47:12.847Z,20.50
2018-11-28T09:49:40.299Z,19.97
2018-11-28T09:52:07.713Z,20.10
2018-11-28T09:54:35.178Z,18.70
2018-11-28T09:57:02.607Z,19.43
2018-11-28T09:59:30.031Z,19.60
2018-11-28T10:01:57.436Z,21.27
2018-11-28T10:04:24.859Z,25.90
2018-11-28T10:06:52.251Z,22.80
2018-11-28T10:09:19.692Z,22.03
2018-11-28T10:11:47.098Z,19.17
2018-11-28T10:14:14.519Z,17.97
2018-11-28T10:16:42.125Z,18.50
2018-11-28T10:19:09.366Z,19.40
2018-11-28T10:21:36.795Z,19.03
2018-11-28T10:24:04.547Z,17.33
2018-11-28T10:26:31.947Z,17.37
2018-11-28T10:28:59.367Z,17.57
2018-11-28T10:31:26.785Z,16.63
2018-11-28T10:33:54.208Z,15.97
2018-11-28T10:36:21.671Z,15.30
2018-11-28T10:38:49.079Z,17.03
2018-11-28T10:41:16.643Z,17.97
2018-11-28T10:43:44.084Z,17.40
2018-11-28T10:46:11.514Z,15.80
2018-11-28T10:48:38.933Z,17.07
2018-11-28T10:51:06.714Z,17.23
2018-11-28T10:53:34.161Z,18.87
2018-11-28T10:56:01.607Z,18.30
2018-11-28T10:58:29.043Z,17.13
2018-11-28T11:01:02.220Z,16.63
2018-11-28T11:03:35.399Z,16.77
2018-11-28T11:07:07.165Z,16.07
2018-11-28T11:09:40.195Z,14.03
2018-11-28T11:12:12.219Z,14.57
2018-11-28T11:14:46.181Z,14.03
2018-11-28T11:17:13.655Z,15.17
2018-11-28T11:19:41.130Z,15.43
2018-11-28T11:22:08.596Z,15.17
2018-11-28T11:24:36.012Z,14.17
2018-11-28T11:27:03.519Z,15.07
2018-11-28T11:29:30.942Z,14.30
2018-11-28T11:31:58.408Z,14.63
2018-11-28T11:34:25.837Z,14.57
2018-11-28T11:36:53.271Z,13.47
2018-11-28T11:39:20.703Z,13.53
2018-11-28T11:41:48.208Z,14.47
2018-11-28T11:44:15.607Z,13.23
2018-11-28T11:46:43.048Z,16.53
2018-11-28T11:49:10.450Z,14.40
2018-11-28T11:51:38.268Z,13.93
2018-11-28T11:54:05.687Z,14.10
2018-11-28T11:56:33.231Z,13.90
2018-11-28T11:59:00.728Z,13.00
2018-11-28T12:01:28.190Z,13.00
2018-11-28T12:03:55.625Z,13.30
2018-11-28T12:06:23.039Z,12.87
2018-11-28T12:08:50.456Z,11.00
2018-11-28T12:11:17.883Z,11.43
2018-11-28T12:13:45.300Z,11.20
2018-11-28T12:16:12.760Z,10.97
2018-11-28T12:18:40.186Z,10.30
2018-11-28T12:21:07.603Z,11.13
2018-11-28T12:23:35.419Z,10.17
2018-11-28T12:26:02.917Z,10.40
2018-11-28T12:28:30.427Z,10.17
2018-11-28T12:30:57.881Z,9.77
2018-11-28T12:33:25.319Z,9.37
2018-11-28T12:35:52.761Z,10.37
2018-11-28T12:38:20.264Z,11.57
2018-11-28T12:40:47.696Z,10.03
2018-11-28T12:43:15.136Z,9.60
2018-11-28T12:45:46.996Z,10.30
2018-11-28T12:48:14.423Z,9.87
2018-11-28T12:50:42.020Z,9.07
2018-11-28T12:53:11.540Z,9.57
2018-11-28T12:55:38.982Z,8.73
2018-11-28T12:58:11.255Z,9.37
2018-11-28T13:00:38.680Z,9.80
2018-11-28T13:03:07.644Z,9.70
2018-11-28T13:05:35.044Z,9.53
2018-11-28T13:08:02.467Z,9.47
2018-11-28T13:10:35.060Z,9.47
2018-11-28T13:13:02.759Z,9.77
2018-11-28T13:15:30.275Z,9.57
2018-11-28T13:17:57.655Z,9.93
2018-11-28T13:20:25.106Z,10.10
2018-11-28T13:22:53.874Z,11.43
2018-11-28T13:25:24.691Z,8.63
2018-11-28T13:27:52.105Z,9.70
2018-11-28T13:30:21.397Z,9.90
2018-11-28T13:32:49.614Z,10.60
2018-11-28T13:35:18.274Z,9.17
2018-11-28T13:37:46.643Z,9.30
2018-11-28T13:40:16.023Z,9.20
2018-11-28T13:42:43.438Z,10.97
2018-11-28T13:45:19.003Z,10.13
2018-11-28T13:47:48.475Z,9.90
2018-11-28T13:50:15.887Z,10.40
2018-11-28T13:52:43.336Z,9.83
2018-11-28T13:57:41.990Z,10.70
2018-11-28T14:00:09.637Z,10.80
2018-11-28T14:02:37.511Z,10.17
2018-11-28T14:05:07.291Z,10.00
2018-11-28T14:07:34.787Z,10.27
2018-11-28T14:10:10.145Z,10.70
2018-11-28T14:12:37.609Z,10.50
2018-11-28T14:15:25.277Z,10.90
2018-11-28T14:17:56.050Z,10.37
2018-11-28T14:20:23.466Z,10.50
2018-11-28T14:22:50.895Z,11.00
2018-11-28T14:25:18.323Z,11.57
2018-11-28T14:27:45.763Z,11.33
2018-11-28T14:30:18.177Z,12.30
2018-11-28T14:32:45.924Z,11.67
2018-11-28T14:35:13.444Z,11.90
2018-11-28T14:37:40.915Z,12.00
2018-11-28T14:40:14.525Z,11.70
2018-11-28T14:42:42.180Z,12.33
2018-11-28T14:45:13.941Z,12.10
2018-11-28T14:47:41.487Z,11.57
2018-11-28T14:50:10.770Z,11.90
2018-11-28T14:52:38.155Z,11.67
2018-11-28T14:55:08.894Z,12.07
2018-11-28T14:57:36.344Z,11.23
2018-11-28T15:00:06.423Z,10.50
2018-11-28T15:02:33.899Z,12.13
2018-11-28T15:05:01.310Z,12.13
2018-11-28T15:07:28.728Z,12.20
2018-11-28T15:09:58.939Z,13.73
2018-11-28T15:12:28.043Z,12.90
2018-11-28T15:14:55.439Z,12.50
2018-11-28T15:17:22.899Z,12.90
2018-11-28T15:19:50.306Z,13.47
2018-11-28T15:22:17.763Z,12.97
2018-11-28T15:24:45.219Z,13.50
2018-11-28T15:27:12.688Z,12.93
2018-11-28T15:29:40.123Z,12.60
2018-11-28T15:32:07.555Z,12.90
2018-11-28T15:34:34.971Z,13.17
2018-11-28T15:37:02.451Z,12.80
2018-11-28T15:39:29.875Z,12.00
2018-11-28T15:41:57.320Z,13.10
2018-11-28T15:44:24.733Z,12.40
2018-11-28T15:46:52.285Z,14.37
2018-11-28T15:49:19.715Z,13.07
2018-11-28T15:51:47.179Z,12.87
2018-11-28T15:54:14.641Z,11.83
2018-11-28T15:56:42.095Z,13.33
2018-11-28T15:59:09.524Z,13.07
2018-11-28T16:01:36.977Z,14.80
2018-11-28T16:04:04.603Z,14.37
2018-11-28T16:06:32.024Z,13.13
2018-11-28T16:08:59.455Z,13.33
2018-11-28T16:11:27.450Z,12.87
2018-11-28T16:13:54.879Z,13.43
2018-11-28T16:16:22.287Z,13.17
2018-11-28T16:18:49.775Z,13.80
2018-11-28T16:21:17.216Z,13.47
2018-11-28T16:23:44.662Z,13.23
2018-11-28T16:26:12.080Z,13.87
2018-11-28T16:28:39.501Z,14.07
2018-11-28T16:31:06.936Z,13.60
2018-11-28T16:33:34.359Z,14.30
2018-11-28T16:36:02.631Z,14.53
2018-11-28T16:38:30.060Z,13.50
2018-11-28T16:40:57.475Z,15.03
2018-11-28T16:43:24.927Z,13.60
2018-11-28T16:45:52.375Z,14.57
2018-11-28T16:48:19.828Z,13.77
2018-11-28T16:50:47.315Z,13.57
2018-11-28T16:53:14.748Z,14.60
2018-11-28T16:55:42.151Z,16.60
2018-11-28T16:58:09.599Z,15.90
2018-11-28T17:00:40.801Z,15.13
2018-11-28T17:03:08.231Z,14.33
2018-11-28T17:05:35.675Z,13.57
2018-11-28T17:08:03.115Z,15.00
2018-11-28T17:10:30.507Z,14.80
2018-11-28T17:12:58.631Z,12.40
2018-11-28T17:15:26.134Z,11.03
2018-11-28T17:17:53.552Z,11.50
2018-11-28T17:20:22.259Z,12.57
2018-11-28T17:22:50.623Z,12.30
2018-11-28T17:25:21.151Z,12.10
2018-11-28T17:27:48.592Z,11.73
2018-11-28T17:30:19.073Z,10.37
2018-11-28T17:32:44.998Z,10.00
2018-11-28T17:35:13.275Z,10.40
2018-11-28T17:37:40.712Z,11.30
2018-11-28T17:40:11.773Z,10.63
2018-11-28T17:42:39.355Z,11.97
2018-11-28T17:45:11.066Z,10.80
2018-11-28T17:47:38.488Z,12.13
2018-11-28T17:50:09.783Z,11.73
2018-11-28T17:52:37.223Z,15.03
2018-11-28T17:55:08.078Z,12.70
2018-11-28T17:57:35.495Z,13.53
2018-11-28T18:00:03.437Z,25.50
2018-11-28T18:02:30.845Z,14.37
2018-11-28T18:04:58.299Z,16.90
2018-11-28T18:07:25.691Z,13.83
2018-11-28T18:09:53.135Z,14.50
2018-11-28T18:12:20.564Z,13.23
2018-11-28T18:14:48.020Z,13.17
2018-11-28T18:17:15.418Z,13.63
2018-11-28T18:19:42.858Z,13.57
2018-11-28T18:22:10.311Z,14.93
2018-11-28T18:24:37.767Z,14.77
2018-11-28T18:27:05.491Z,17.70
2018-11-28T18:29:32.919Z,16.00
2018-11-28T18:32:00.374Z,16.17
2018-11-28T18:34:27.820Z,14.87
2018-11-28T18:36:55.224Z,14.67
2018-11-28T18:39:22.692Z,14.00
2018-11-28T18:41:50.087Z,14.23
2018-11-28T18:44:17.548Z,14.27
2018-11-28T18:46:44.948Z,13.43
2018-11-28T18:49:12.386Z,15.07
2018-11-28T18:51:39.810Z,14.50
2018-11-28T18:54:07.251Z,13.00
2018-11-28T18:56:34.681Z,14.93
2018-11-28T18:59:02.080Z,15.07
2018-11-28T19:01:29.544Z,14.40
2018-11-28T19:03:56.956Z,15.13
2018-11-28T19:06:24.408Z,14.17
2018-11-28T19:08:51.813Z,14.27
2018-11-28T19:11:19.259Z,14.93
2018-11-28T19:13:46.673Z,13.77
2018-11-28T19:16:14.129Z,14.53
2018-11-28T19:18:41.543Z,13.53
2018-11-28T19:21:08.992Z,13.57
2018-11-28T19:23:36.388Z,15.80
2018-11-28T19:26:04.024Z,14.13
2018-11-28T19:28:31.457Z,14.70
2018-11-28T19:30:58.976Z,14.07
2018-11-28T19:33:26.384Z,14.57
2018-11-28T19:35:53.839Z,16.03
2018-11-28T19:38:21.252Z,17.23
2018-11-28T19:40:54.748Z,16.53
2018-11-28T19:43:22.261Z,16.47
2018-11-28T19:45:49.730Z,17.27
2018-11-28T19:48:17.136Z,18.17
2018-11-28T19:50:44.651Z,15.93
2018-11-28T19:53:12.089Z,16.37
2018-11-28T19:55:39.979Z,16.77
2018-11-28T19:58:07.395Z,17.77
2018-11-28T20:00:35.507Z,15.07
2018-11-28T20:03:02.934Z,13.57
2018-11-28T20:05:30.408Z,20.23
2018-11-28T20:07:57.803Z,15.20
2018-11-28T20:10:25.286Z,18.63
2018-11-28T20:12:52.711Z,15.57
2018-11-28T20:15:22.398Z,15.20
2018-11-28T20:17:50.196Z,15.70
2018-11-28T20:20:17.819Z,16.37
2018-11-28T20:22:45.224Z,19.57
2018-11-28T20:25:13.703Z,19.70
2018-11-28T20:27:41.945Z,21.10
2018-11-28T20:30:12.345Z,20.13
2018-11-28T20:32:39.811Z,19.73
2018-11-28T20:35:08.277Z,20.73
2018-11-28T20:37:35.735Z,18.63
2018-11-28T20:40:04.537Z,18.20
2018-11-28T20:42:31.963Z,19.03
2018-11-28T20:44:59.433Z,18.20
2018-11-28T20:47:26.908Z,17.33
2018-11-28T20:49:54.300Z,17.73
2018-11-28T20:52:21.751Z,17.77
2018-11-28T20:54:49.167Z,19.13
2018-11-28T20:57:17.394Z,23.30
2018-11-28T20:59:44.060Z,21.43
2018-11-28T21:02:11.503Z,20.73
2018-11-28T21:04:38.912Z,24.40
2018-11-28T21:07:06.390Z,20.37
2018-11-28T21:09:38.382Z,19.10
2018-11-28T21:12:06.227Z,21.33
2018-11-28T21:14:33.628Z,19.57
2018-11-28T21:17:01.071Z,19.77
2018-11-28T21:19:28.475Z,20.17
2018-11-28T21:21:55.919Z,20.57
2018-11-28T21:24:23.324Z,23.37
2018-11-28T21:26:50.756Z,21.07
2018-11-28T21:29:18.217Z,20.70
2018-11-28T21:31:45.652Z,20.97
2018-11-28T21:34:13.123Z,21.10
2018-11-28T21:36:40.553Z,22.10
2018-11-28T21:39:08.842Z,28.73
2018-11-28T21:41:36.290Z,34.17
2018-11-28T21:44:03.745Z,34.43
2018-11-28T21:46:31.169Z,32.20
2018-11-28T21:48:58.620Z,25.10
2018-11-28T21:51:26.068Z,24.00
2018-11-28T21:53:53.488Z,24.10
2018-11-28T21:56:20.911Z,20.27
2018-11-28T21:58:48.335Z,20.90
2018-11-28T22:01:15.760Z,19.93
2018-11-28T22:03:43.194Z,20.90
2018-11-28T22:06:10.612Z,22.90
2018-11-28T22:08:38.033Z,20.50
2018-11-28T22:11:05.455Z,22.47
2018-11-28T22:13:32.895Z,24.40
2018-11-28T22:16:00.348Z,24.53
2018-11-28T22:18:27.780Z,26.43
2018-11-28T22:20:55.193Z,23.90
2018-11-28T22:23:22.847Z,23.93
2018-11-28T22:25:50.262Z,24.57
2018-11-28T22:28:17.698Z,22.17
2018-11-28T22:30:45.090Z,23.20
2018-11-28T22:33:12.519Z,21.97
2018-11-28T22:35:39.922Z,25.93
2018-11-28T22:38:07.560Z,22.60
2018-11-28T22:40:34.977Z,23.27
2018-11-28T22:43:02.414Z,23.67
2018-11-28T22:45:32.347Z,26.50
2018-11-28T22:47:59.819Z,26.37
2018-11-28T22:50:27.275Z,20.93
2018-11-28T22:52:54.714Z,24.77
2018-11-28T22:55:22.156Z,23.93
2018-11-28T22:57:49.626Z,23.47
2018-11-28T23:00:24.744Z,22.57
2018-11-28T23:02:57.853Z,24.80
2018-11-28T23:05:29.427Z,22.97
2018-11-28T23:07:58.104Z,20.70
2018-11-28T23:10:25.540Z,22.03
2018-11-28T23:12:52.987Z,21.63
2018-11-28T23:15:22.595Z,24.20
2018-11-28T23:17:54.870Z,23.40
2018-11-28T23:20:17.478Z,24.40
2018-11-28T23:22:44.866Z,21.20
2018-11-28T23:25:12.387Z,23.40
2018-11-28T23:27:39.837Z,21.50
2018-11-28T23:30:22.202Z,21.03
2018-11-28T23:32:50.417Z,21.03
2018-11-28T23:35:18.131Z,22.40
2018-11-28T23:37:46.524Z,22.00
2018-11-28T23:40:17.875Z,25.20
2018-11-28T23:42:45.299Z,24.83
2018-11-28T23:45:13.327Z,23.47
2018-11-28T23:47:40.795Z,23.50
2018-11-28T23:50:16.898Z,24.53
2018-11-28T23:52:44.655Z,24.20
2018-11-28T23:55:21.990Z,23.07
2018-11-28T23:57:49.406Z,19.30
